Time;durP1;ratioP1;P1;durP2;ratioP2;P2;SDS_P1;SDS_P2;PMS_P1;PMS_P2;Temp;Humidity;BMP_temperature;BMP_pressure;BME280_temperature;BME280_humidity;BME280_pressure;Samples;Min_cycle;Max_cycle;Signal;HPM_P1;HPM_P2
2023/04/24 00:01:15;;;;;;;10.90;10.10;;;;;;;;;;4994864;28;20188;-63
2023/04/24 00:03:41;;;;;;;11.35;10.65;;;;;;;;;;4995641;28;20030;-61
2023/04/24 00:06:07;;;;;;;11.20;10.50;;;;;;;;;;4996580;28;20339;-58
2023/04/24 00:08:36;;;;;;;10.82;10.18;;;;;;;;;;4999039;28;20068;-58
2023/04/24 00:11:01;;;;;;;11.85;11.15;;;;;;;;;;4996669;28;20041;-61
2023/04/24 00:13:28;;;;;;;13.15;12.25;;;;;;;;;;4993826;28;20038;-61
2023/04/24 00:15:54;;;;;;;12.80;12.07;;;;;;;;;;4993028;28;20042;-62
2023/04/24 00:18:20;;;;;;;12.65;11.93;;;;;;;;;;4995230;28;20376;-63
2023/04/24 00:20:46;;;;;;;12.32;11.63;;;;;;;;;;5031549;28;20060;-62
2023/04/24 00:23:12;;;;;;;14.07;13.18;;;;;;;;;;4994507;28;20053;-63
2023/04/24 00:25:37;;;;;;;12.85;12.10;;;;;;;;;;4995478;28;20144;-62
2023/04/24 00:28:02;;;;;;;13.05;12.25;;;;;;;;;;4997474;28;20077;-61
2023/04/24 00:30:28;;;;;;;13.18;12.40;;;;;;;;;;4998635;28;20554;-62
2023/04/24 00:32:53;;;;;;;12.13;11.43;;;;;;;;;;4996389;28;20428;-62
2023/04/24 00:35:19;;;;;;;11.45;10.75;;;;;;;;;;4996315;28;20049;-62
2023/04/24 00:37:45;;;;;;;11.55;10.85;;;;;;;;;;4997752;28;20432;-58
2023/04/24 00:40:11;;;;;;;11.98;11.27;;;;;;;;;;4998730;28;20117;-58
2023/04/24 00:42:36;;;;;;;11.57;10.88;;;;;;;;;;4996279;28;20368;-58
2023/04/24 00:45:03;;;;;;;11.75;10.95;;;;;;;;;;4996618;28;20042;-58
2023/04/24 00:47:28;;;;;;;11.95;11.25;;;;;;;;;;4996926;28;20789;-58
2023/04/24 00:49:54;;;;;;;10.50;9.90;;;;;;;;;;4994908;28;20100;-58
2023/04/24 00:52:20;;;;;;;11.77;11.07;;;;;;;;;;4994550;28;20499;-58
2023/04/24 00:54:45;;;;;;;12.13;11.43;;;;;;;;;;4997163;28;20061;-58
2023/04/24 00:57:12;;;;;;;11.15;10.45;;;;;;;;;;4995863;28;20038;-58
2023/04/24 00:59:39;;;;;;;12.20;11.50;;;;;;;;;;4998224;28;20049;-58
2023/04/24 01:02:05;;;;;;;11.88;11.18;;;;;;;;;;4996275;28;20038;-58
2023/04/24 01:04:30;;;;;;;12.50;11.80;;;;;;;;;;4994363;28;20039;-58
2023/04/24 01:06:57;;;;;;;11.85;11.15;;;;;;;;;;4993740;28;20042;-58
2023/04/24 01:09:23;;;;;;;12.88;12.15;;;;;;;;;;4994960;28;20046;-62
2023/04/24 01:11:49;;;;;;;11.60;10.90;;;;;;;;;;4995700;28;20433;-62
2023/04/24 01:14:15;;;;;;;10.80;10.15;;;;;;;;;;4994919;28;20420;-62
2023/04/24 01:16:41;;;;;;;12.27;11.57;;;;;;;;;;4995759;28;20034;-62
2023/04/24 01:19:07;;;;;;;11.70;11.00;;;;;;;;;;4993347;28;20034;-63
2023/04/24 01:21:36;;;;;;;13.60;12.80;;;;;;;;;;4996115;28;20121;-61
2023/04/24 01:24:02;;;;;;;12.32;11.52;;;;;;;;;;4995078;28;20384;-62
2023/04/24 01:26:27;;;;;;;13.25;12.45;;;;;;;;;;4993576;28;20037;-62
2023/04/24 01:28:53;;;;;;;12.02;11.32;;;;;;;;;;4995073;28;20478;-61
2023/04/24 01:31:19;;;;;;;12.20;11.48;;;;;;;;;;4992612;28;20050;-63
2023/04/24 01:33:44;;;;;;;13.52;12.73;;;;;;;;;;5024657;28;20034;-63
2023/04/24 01:36:11;;;;;;;13.35;12.55;;;;;;;;;;4996167;28;20049;-62
2023/04/24 01:38:37;;;;;;;13.45;12.65;;;;;;;;;;4994833;28;20052;-61
2023/04/24 01:41:02;;;;;;;12.80;12.05;;;;;;;;;;4996626;28;20065;-63
2023/04/24 01:43:28;;;;;;;13.70;12.90;;;;;;;;;;4994080;28;20034;-62
2023/04/24 01:45:53;;;;;;;14.40;13.57;;;;;;;;;;4993982;28;20037;-62
2023/04/24 01:48:19;;;;;;;12.52;11.80;;;;;;;;;;4993437;28;20089;-63
2023/04/24 01:50:45;;;;;;;12.70;11.95;;;;;;;;;;4997681;28;20041;-61
2023/04/24 01:53:11;;;;;;;12.15;11.45;;;;;;;;;;4992809;28;20030;-62
2023/04/24 01:55:36;;;;;;;12.10;11.40;;;;;;;;;;4994422;28;20096;-62
2023/04/24 01:58:02;;;;;;;13.75;12.95;;;;;;;;;;4995846;28;20046;-63
2023/04/24 02:00:27;;;;;;;12.10;11.40;;;;;;;;;;4993734;28;20034;-63
2023/04/24 02:02:52;;;;;;;12.38;11.68;;;;;;;;;;4994503;28;20026;-63
2023/04/24 02:05:19;;;;;;;12.45;11.75;;;;;;;;;;4995949;28;20502;-62
2023/04/24 02:07:45;;;;;;;11.48;10.77;;;;;;;;;;4994983;28;20029;-62
2023/04/24 02:10:11;;;;;;;11.43;10.73;;;;;;;;;;4992981;28;20030;-61
2023/04/24 02:12:36;;;;;;;12.20;11.50;;;;;;;;;;4993918;28;20525;-58
2023/04/24 02:15:02;;;;;;;11.40;10.70;;;;;;;;;;4996337;28;20032;-58
2023/04/24 02:17:28;;;;;;;11.98;11.27;;;;;;;;;;4991890;28;20038;-58
2023/04/24 02:19:53;;;;;;;11.65;10.95;;;;;;;;;;4994512;28;20042;-57
2023/04/24 02:22:19;;;;;;;13.55;12.50;;;;;;;;;;4993780;28;20045;-58
2023/04/24 02:24:44;;;;;;;10.70;10.07;;;;;;;;;;4995780;28;20030;-58
2023/04/24 02:27:11;;;;;;;10.63;10.00;;;;;;;;;;4992954;28;20034;-58
2023/04/24 02:29:36;;;;;;;12.30;11.52;;;;;;;;;;4993563;28;20034;-58
2023/04/24 02:32:02;;;;;;;11.48;10.77;;;;;;;;;;4994538;28;20037;-58
2023/04/24 02:34:27;;;;;;;11.18;10.50;;;;;;;;;;4997817;28;20155;-59
2023/04/24 02:36:53;;;;;;;10.75;10.07;;;;;;;;;;4994687;28;20037;-63
2023/04/24 02:39:19;;;;;;;10.02;9.43;;;;;;;;;;4993189;28;20435;-63
2023/04/24 02:41:44;;;;;;;10.35;9.50;;;;;;;;;;4995863;28;20038;-58
2023/04/24 02:44:10;;;;;;;10.85;10.15;;;;;;;;;;4999334;28;20042;-58
2023/04/24 02:46:35;;;;;;;9.98;9.38;;;;;;;;;;4999313;28;20067;-58
2023/04/24 02:49:01;;;;;;;10.35;9.65;;;;;;;;;;4998555;28;20093;-58
2023/04/24 02:51:26;;;;;;;10.32;9.73;;;;;;;;;;4999694;28;20727;-58
2023/04/24 02:53:52;;;;;;;10.05;9.45;;;;;;;;;;4994775;28;20037;-58
2023/04/24 02:56:17;;;;;;;10.07;9.48;;;;;;;;;;4998497;28;20057;-58
2023/04/24 02:58:43;;;;;;;10.15;9.55;;;;;;;;;;4998994;28;20041;-58
2023/04/24 03:01:09;;;;;;;10.50;9.90;;;;;;;;;;4997108;28;20044;-58
2023/04/24 03:03:35;;;;;;;13.25;12.35;;;;;;;;;;4998683;28;20038;-58
2023/04/24 03:06:01;;;;;;;10.55;9.95;;;;;;;;;;4997224;28;20034;-58
2023/04/24 03:08:26;;;;;;;10.70;10.07;;;;;;;;;;4999131;28;20030;-58
2023/04/24 03:10:52;;;;;;;10.63;9.98;;;;;;;;;;4998582;28;20053;-58
2023/04/24 03:13:17;;;;;;;12.32;11.63;;;;;;;;;;4996878;28;20032;-58
2023/04/24 03:15:43;;;;;;;12.90;12.13;;;;;;;;;;5000379;28;20034;-58
2023/04/24 03:18:08;;;;;;;13.68;12.88;;;;;;;;;;4996052;28;20034;-58
2023/04/24 03:20:33;;;;;;;13.93;13.07;;;;;;;;;;4999503;28;20860;-58
2023/04/24 03:22:59;;;;;;;13.00;12.20;;;;;;;;;;4992781;28;20507;-58
2023/04/24 03:25:24;;;;;;;13.27;12.48;;;;;;;;;;5001478;28;20572;-58
2023/04/24 03:27:50;;;;;;;14.40;13.57;;;;;;;;;;4995179;28;20116;-62
2023/04/24 03:30:15;;;;;;;14.25;13.45;;;;;;;;;;5029559;28;20158;-63
2023/04/24 03:32:40;;;;;;;12.73;12.00;;;;;;;;;;4993057;28;20030;-63
2023/04/24 03:35:08;;;;;;;13.10;12.35;;;;;;;;;;4998465;28;20065;-63
2023/04/24 03:37:33;;;;;;;13.68;12.88;;;;;;;;;;4997814;28;20814;-62
2023/04/24 03:39:59;;;;;;;13.05;12.27;;;;;;;;;;5000017;28;20109;-62
2023/04/24 03:42:24;;;;;;;13.10;12.32;;;;;;;;;;4992697;28;20127;-63
2023/04/24 03:44:50;;;;;;;13.93;12.93;;;;;;;;;;4996909;28;20041;-62
2023/04/24 03:47:15;;;;;;;13.05;12.30;;;;;;;;;;4998859;28;20201;-61
2023/04/24 03:49:40;;;;;;;12.30;11.55;;;;;;;;;;4997171;28;20034;-63
2023/04/24 03:52:06;;;;;;;11.60;10.90;;;;;;;;;;4994693;28;20460;-61
2023/04/24 03:54:31;;;;;;;11.75;11.02;;;;;;;;;;5000496;28;20037;-63
2023/04/24 03:56:57;;;;;;;12.15;11.45;;;;;;;;;;4997700;28;20044;-62
2023/04/24 03:59:22;;;;;;;10.35;9.75;;;;;;;;;;4997676;28;20053;-62
2023/04/24 04:01:47;;;;;;;10.23;9.63;;;;;;;;;;4996313;28;20038;-63
2023/04/24 04:04:13;;;;;;;10.60;9.98;;;;;;;;;;4997808;28;20469;-63
2023/04/24 04:06:38;;;;;;;9.80;9.20;;;;;;;;;;4997532;28;20022;-63
2023/04/24 04:09:03;;;;;;;8.77;8.23;;;;;;;;;;4998006;28;20023;-60
2023/04/24 04:11:30;;;;;;;9.00;8.40;;;;;;;;;;4996708;28;20858;-60
2023/04/24 04:13:56;;;;;;;9.05;8.45;;;;;;;;;;4997116;28;20108;-60
2023/04/24 04:16:22;;;;;;;9.85;9.25;;;;;;;;;;4998621;28;20034;-60
2023/04/24 04:18:47;;;;;;;8.90;8.30;;;;;;;;;;4997125;28;20092;-61
2023/04/24 04:21:13;;;;;;;9.45;8.85;;;;;;;;;;4995846;28;20041;-61
2023/04/24 04:23:39;;;;;;;8.85;8.25;;;;;;;;;;4995356;28;20475;-61
2023/04/24 04:26:05;;;;;;;7.60;7.10;;;;;;;;;;4995798;28;20041;-61
2023/04/24 04:28:31;;;;;;;8.40;7.90;;;;;;;;;;4997008;28;20030;-61
2023/04/24 04:30:57;;;;;;;8.77;8.20;;;;;;;;;;4997802;28;20030;-62
2023/04/24 04:33:24;;;;;;;8.00;7.50;;;;;;;;;;4994727;28;20459;-61
2023/04/24 04:35:51;;;;;;;8.70;8.10;;;;;;;;;;4994838;28;20050;-61
2023/04/24 04:38:18;;;;;;;9.15;8.55;;;;;;;;;;4999003;28;20143;-62
2023/04/24 04:40:43;;;;;;;8.77;8.20;;;;;;;;;;4996819;28;20029;-58
2023/04/24 04:43:10;;;;;;;8.93;8.32;;;;;;;;;;4996478;28;20045;-58
2023/04/24 04:45:35;;;;;;;8.90;8.30;;;;;;;;;;4995372;28;20112;-58
2023/04/24 04:48:01;;;;;;;8.45;7.95;;;;;;;;;;4994970;28;20475;-58
2023/04/24 04:50:27;;;;;;;8.88;8.27;;;;;;;;;;4998920;28;20124;-58
2023/04/24 04:52:52;;;;;;;8.48;7.97;;;;;;;;;;4994727;28;20475;-58
2023/04/24 04:55:19;;;;;;;7.90;7.40;;;;;;;;;;4992928;28;20033;-58
2023/04/24 04:57:45;;;;;;;8.75;8.15;;;;;;;;;;4993722;28;20044;-58
2023/04/24 05:00:11;;;;;;;8.95;8.35;;;;;;;;;;4997266;28;20052;-58
2023/04/24 05:02:37;;;;;;;8.85;8.27;;;;;;;;;;4993614;28;20033;-58
2023/04/24 05:05:03;;;;;;;8.55;8.05;;;;;;;;;;4994196;28;20034;-58
2023/04/24 05:07:28;;;;;;;10.07;9.48;;;;;;;;;;4992957;28;20369;-58
2023/04/24 05:09:54;;;;;;;9.07;8.48;;;;;;;;;;4993254;28;20038;-58
2023/04/24 05:12:19;;;;;;;8.68;8.18;;;;;;;;;;4997304;28;20030;-58
2023/04/24 05:14:44;;;;;;;9.35;8.75;;;;;;;;;;4999221;28;20049;-61
2023/04/24 05:17:10;;;;;;;9.30;8.70;;;;;;;;;;4996220;28;20041;-60
2023/04/24 05:19:37;;;;;;;9.45;8.85;;;;;;;;;;4997524;28;20034;-62
2023/04/24 05:22:04;;;;;;;11.10;10.40;;;;;;;;;;4996577;28;20127;-62
2023/04/24 05:24:30;;;;;;;10.85;10.15;;;;;;;;;;4995384;28;20065;-62
2023/04/24 05:26:56;;;;;;;10.15;9.45;;;;;;;;;;4992927;28;20076;-61
2023/04/24 05:29:22;;;;;;;11.07;10.38;;;;;;;;;;4996720;28;20061;-62
2023/04/24 05:31:47;;;;;;;11.18;10.48;;;;;;;;;;4995952;28;20073;-62
2023/04/24 05:34:14;;;;;;;10.70;10.00;;;;;;;;;;4996358;28;20040;-61
2023/04/24 05:36:39;;;;;;;11.00;10.30;;;;;;;;;;4996931;28;20076;-62
2023/04/24 05:39:04;;;;;;;12.00;11.30;;;;;;;;;;4996720;28;20574;-61
2023/04/24 05:41:30;;;;;;;10.85;10.20;;;;;;;;;;4994392;28;20030;-61
2023/04/24 05:43:55;;;;;;;10.82;10.13;;;;;;;;;;5000101;28;20045;-58
2023/04/24 05:46:21;;;;;;;12.20;11.30;;;;;;;;;;4995715;28;20033;-61
2023/04/24 05:48:46;;;;;;;10.98;10.27;;;;;;;;;;4993070;28;20044;-62
2023/04/24 05:51:12;;;;;;;11.80;11.10;;;;;;;;;;4996020;28;20057;-61
2023/04/24 05:53:37;;;;;;;12.32;11.63;;;;;;;;;;4993944;28;20034;-57
2023/04/24 05:56:03;;;;;;;9.70;9.10;;;;;;;;;;5028267;28;20037;-58
2023/04/24 05:58:28;;;;;;;10.05;9.45;;;;;;;;;;4992435;28;20037;-57
2023/04/24 06:00:54;;;;;;;9.98;9.38;;;;;;;;;;4996021;28;20435;-57
2023/04/24 06:03:20;;;;;;;9.35;8.75;;;;;;;;;;4994260;28;20030;-58
2023/04/24 06:05:45;;;;;;;10.90;10.20;;;;;;;;;;4994072;28;20074;-59
2023/04/24 06:08:11;;;;;;;10.38;9.75;;;;;;;;;;4994904;28;20105;-58
2023/04/24 06:10:36;;;;;;;10.95;10.30;;;;;;;;;;5023739;28;20061;-57
2023/04/24 06:13:02;;;;;;;11.88;11.07;;;;;;;;;;4995008;28;20042;-58
2023/04/24 06:15:30;;;;;;;12.52;11.82;;;;;;;;;;4994064;28;20727;-58
2023/04/24 06:17:56;;;;;;;12.98;12.18;;;;;;;;;;4994186;28;20034;-58
2023/04/24 06:20:21;;;;;;;13.80;13.00;;;;;;;;;;5000086;28;20096;-58
2023/04/24 06:22:46;;;;;;;12.85;12.07;;;;;;;;;;5001565;28;20676;-59
2023/04/24 06:25:12;;;;;;;12.27;11.57;;;;;;;;;;4996489;28;20074;-58
2023/04/24 06:27:37;;;;;;;12.50;11.75;;;;;;;;;;4998015;28;20057;-57
2023/04/24 06:30:03;;;;;;;13.63;12.82;;;;;;;;;;4999077;28;20034;-57
2023/04/24 06:32:28;;;;;;;13.15;12.15;;;;;;;;;;4997629;28;20515;-57
2023/04/24 06:34:54;;;;;;;12.10;11.40;;;;;;;;;;4995844;28;20042;-57
2023/04/24 06:37:22;;;;;;;10.90;10.20;;;;;;;;;;4999833;28;20034;-57
2023/04/24 06:39:48;;;;;;;12.05;11.25;;;;;;;;;;4997480;28;20046;-57
2023/04/24 06:42:13;;;;;;;12.20;11.50;;;;;;;;;;5000322;28;20132;-57
2023/04/24 06:44:42;;;;;;;12.30;11.60;;;;;;;;;;4998020;28;20042;-58
2023/04/24 06:47:08;;;;;;;11.52;10.82;;;;;;;;;;4996602;28;20591;-57
2023/04/24 06:49:35;;;;;;;12.15;11.45;;;;;;;;;;4998975;28;20483;-57
2023/04/24 06:52:00;;;;;;;11.45;10.75;;;;;;;;;;5000560;28;20034;-57
2023/04/24 06:54:26;;;;;;;11.80;11.10;;;;;;;;;;4999490;28;20030;-57
2023/04/24 06:56:52;;;;;;;11.52;10.82;;;;;;;;;;4996329;28;20145;-58
2023/04/24 06:59:17;;;;;;;10.43;9.82;;;;;;;;;;4998763;28;20038;-58
2023/04/24 07:01:42;;;;;;;11.10;10.40;;;;;;;;;;4997661;28;20038;-57
2023/04/24 07:04:08;;;;;;;11.07;10.38;;;;;;;;;;4994592;28;20104;-57
2023/04/24 07:06:34;;;;;;;10.52;9.82;;;;;;;;;;4999246;28;20049;-58
2023/04/24 07:09:01;;;;;;;10.20;9.60;;;;;;;;;;5000313;28;20049;-57
2023/04/24 07:11:29;;;;;;;10.55;9.85;;;;;;;;;;4999079;28;20107;-58
2023/04/24 07:13:55;;;;;;;10.43;9.73;;;;;;;;;;4993320;28;20034;-58
2023/04/24 07:16:20;;;;;;;10.13;9.52;;;;;;;;;;4995541;28;20039;-58
2023/04/24 07:18:46;;;;;;;9.73;9.13;;;;;;;;;;4994488;28;20344;-58
2023/04/24 07:21:11;;;;;;;9.65;9.05;;;;;;;;;;4996677;28;20109;-58
2023/04/24 07:23:36;;;;;;;10.65;9.95;;;;;;;;;;4997158;28;20129;-58
2023/04/24 07:26:02;;;;;;;10.82;10.13;;;;;;;;;;4998369;28;20042;-57
2023/04/24 07:28:30;;;;;;;9.50;8.90;;;;;;;;;;5000328;28;20073;-58
2023/04/24 07:30:56;;;;;;;10.35;9.65;;;;;;;;;;4998481;28;20459;-58
2023/04/24 07:33:22;;;;;;;9.90;9.30;;;;;;;;;;4994088;28;20030;-58
2023/04/24 07:35:48;;;;;;;9.55;8.95;;;;;;;;;;4998498;28;20084;-58
2023/04/24 07:38:13;;;;;;;9.02;8.43;;;;;;;;;;5005965;28;20400;-57
2023/04/24 07:40:38;;;;;;;9.68;9.07;;;;;;;;;;5016814;28;20068;-58
2023/04/24 07:43:04;;;;;;;10.50;9.90;;;;;;;;;;4998042;28;20047;-58
2023/04/24 07:45:30;;;;;;;9.00;8.40;;;;;;;;;;4996413;28;20048;-58
2023/04/24 07:47:56;;;;;;;10.10;9.50;;;;;;;;;;4993821;28;20038;-57
2023/04/24 07:50:22;;;;;;;9.48;8.88;;;;;;;;;;4997491;28;20088;-58
2023/04/24 07:52:47;;;;;;;9.88;9.25;;;;;;;;;;4996530;28;20034;-58
2023/04/24 07:55:13;;;;;;;9.75;9.15;;;;;;;;;;4996382;28;20108;-58
2023/04/24 07:57:38;;;;;;;9.57;8.98;;;;;;;;;;4997309;28;20440;-59
2023/04/24 08:00:05;;;;;;;9.50;8.90;;;;;;;;;;4995777;28;20121;-58
2023/04/24 08:02:31;;;;;;;10.43;9.75;;;;;;;;;;4996499;28;20062;-58
2023/04/24 08:04:56;;;;;;;10.02;9.43;;;;;;;;;;4998377;28;20066;-58
2023/04/24 08:07:23;;;;;;;9.50;8.82;;;;;;;;;;4994864;28;20046;-58
2023/04/24 08:09:48;;;;;;;10.70;10.05;;;;;;;;;;4997486;28;20053;-57
2023/04/24 08:12:14;;;;;;;10.15;9.55;;;;;;;;;;4997539;28;20033;-57
2023/04/24 08:14:39;;;;;;;10.55;9.85;;;;;;;;;;4993675;28;20026;-58
2023/04/24 08:17:04;;;;;;;9.85;9.25;;;;;;;;;;4996873;28;20061;-58
2023/04/24 08:19:30;;;;;;;10.27;9.60;;;;;;;;;;4994313;28;20022;-58
2023/04/24 08:21:55;;;;;;;9.88;9.27;;;;;;;;;;4997216;28;20053;-58
2023/04/24 08:24:21;;;;;;;10.15;9.55;;;;;;;;;;4998882;28;20038;-58
2023/04/24 08:26:50;;;;;;;10.90;10.25;;;;;;;;;;4997078;28;20046;-59
2023/04/24 08:29:15;;;;;;;10.90;10.25;;;;;;;;;;4999022;28;20096;-58
2023/04/24 08:31:41;;;;;;;12.15;11.45;;;;;;;;;;4995364;28;20345;-58
2023/04/24 08:34:06;;;;;;;11.95;11.25;;;;;;;;;;4995629;28;20132;-58
2023/04/24 08:36:32;;;;;;;12.10;11.40;;;;;;;;;;4996170;28;20365;-59
2023/04/24 08:38:57;;;;;;;11.90;11.20;;;;;;;;;;4994746;28;20030;-59
2023/04/24 08:41:25;;;;;;;11.45;10.75;;;;;;;;;;4996361;28;20088;-58
2023/04/24 08:43:51;;;;;;;12.30;11.60;;;;;;;;;;4994562;28;20077;-58
2023/04/24 08:46:18;;;;;;;12.32;11.63;;;;;;;;;;4997219;28;20034;-58
2023/04/24 08:48:44;;;;;;;12.13;11.40;;;;;;;;;;4997404;28;20040;-58
2023/04/24 08:51:09;;;;;;;12.48;11.77;;;;;;;;;;5024877;28;20050;-58
2023/04/24 08:53:36;;;;;;;12.43;11.73;;;;;;;;;;4995657;28;20086;-58
2023/04/24 08:56:02;;;;;;;11.85;11.15;;;;;;;;;;4997518;28;20030;-58
2023/04/24 08:58:28;;;;;;;11.73;11.02;;;;;;;;;;4996154;28;20177;-57
2023/04/24 09:00:58;;;;;;;11.18;10.48;;;;;;;;;;4997129;28;20041;-57
2023/04/24 09:03:24;;;;;;;11.70;11.00;;;;;;;;;;4996525;28;20413;-59
2023/04/24 09:05:52;;;;;;;11.48;10.77;;;;;;;;;;4996951;28;20121;-59
2023/04/24 09:08:19;;;;;;;10.45;9.85;;;;;;;;;;4994167;28;20033;-59
2023/04/24 09:10:44;;;;;;;11.60;10.90;;;;;;;;;;4994350;28;20030;-59
2023/04/24 09:13:10;;;;;;;10.02;9.43;;;;;;;;;;4991596;28;20121;-58
2023/04/24 09:15:36;;;;;;;9.30;8.70;;;;;;;;;;4995213;28;20030;-58
2023/04/24 09:18:02;;;;;;;9.93;9.32;;;;;;;;;;4992021;28;20072;-58
2023/04/24 09:20:27;;;;;;;9.55;8.95;;;;;;;;;;4995995;28;20034;-58
2023/04/24 09:22:59;;;;;;;11.20;10.40;;;;;;;;;;4994050;28;20046;-58
2023/04/24 09:25:32;;;;;;;9.30;8.70;;;;;;;;;;4996319;28;20038;-58
2023/04/24 09:28:01;;;;;;;10.30;9.70;;;;;;;;;;4993199;28;20120;-58
2023/04/24 09:30:27;;;;;;;10.15;9.48;;;;;;;;;;5028835;28;20061;-58
2023/04/24 09:33:14;;;;;;;10.23;9.63;;;;;;;;;;4997060;28;20258;-58
2023/04/24 09:35:49;;;;;;;10.57;9.88;;;;;;;;;;5000419;28;20125;-60
2023/04/24 09:38:15;;;;;;;9.68;9.07;;;;;;;;;;4995220;28;20038;-59
2023/04/24 09:40:41;;;;;;;9.55;8.95;;;;;;;;;;4995447;28;20105;-59
2023/04/24 09:43:10;;;;;;;10.07;9.48;;;;;;;;;;4994012;28;20084;-58
2023/04/24 09:45:38;;;;;;;9.50;8.90;;;;;;;;;;4993608;28;20052;-59
2023/04/24 09:48:04;;;;;;;9.02;8.43;;;;;;;;;;4995575;28;20040;-60
2023/04/24 09:50:32;;;;;;;9.48;8.88;;;;;;;;;;4994667;28;20383;-60
2023/04/24 09:53:07;;;;;;;9.50;8.90;;;;;;;;;;4993005;28;20034;-60
2023/04/24 09:55:32;;;;;;;9.85;9.25;;;;;;;;;;4994417;28;20040;-58
2023/04/24 09:58:05;;;;;;;8.90;8.30;;;;;;;;;;4992648;28;20034;-58
2023/04/24 10:00:32;;;;;;;9.88;9.27;;;;;;;;;;4995567;28;20049;-58
2023/04/24 10:03:02;;;;;;;10.70;9.90;;;;;;;;;;4992605;28;20034;-58
2023/04/24 10:05:33;;;;;;;11.02;10.32;;;;;;;;;;4993420;28;20062;-58
2023/04/24 10:08:09;;;;;;;10.50;9.80;;;;;;;;;;4991984;28;20033;-58
2023/04/24 10:10:45;;;;;;;9.82;9.23;;;;;;;;;;4992921;28;20513;-57
2023/04/24 10:13:12;;;;;;;10.00;9.40;;;;;;;;;;4992305;28;20033;-57
2023/04/24 10:15:40;;;;;;;10.40;9.80;;;;;;;;;;4994577;28;20034;-58
2023/04/24 10:18:06;;;;;;;10.50;9.80;;;;;;;;;;4993629;28;20086;-57
2023/04/24 10:20:33;;;;;;;10.73;10.02;;;;;;;;;;4996724;28;20417;-58
2023/04/24 10:22:59;;;;;;;9.80;9.20;;;;;;;;;;4992754;28;20114;-58
2023/04/24 10:25:33;;;;;;;10.00;9.30;;;;;;;;;;4992925;28;20048;-57
2023/04/24 10:28:00;;;;;;;9.38;8.77;;;;;;;;;;4994525;28;20053;-57
2023/04/24 10:30:30;;;;;;;10.15;9.45;;;;;;;;;;4987144;28;20038;-57
2023/04/24 10:32:56;;;;;;;10.20;9.60;;;;;;;;;;5024315;28;20113;-57
2023/04/24 10:35:24;;;;;;;9.88;9.27;;;;;;;;;;5000092;28;20129;-58
2023/04/24 10:37:52;;;;;;;11.07;10.38;;;;;;;;;;4995869;28;20052;-57
2023/04/24 10:40:24;;;;;;;12.10;11.30;;;;;;;;;;4993110;28;20034;-57
2023/04/24 10:42:53;;;;;;;12.70;12.00;;;;;;;;;;4995673;28;20046;-57
2023/04/24 10:45:21;;;;;;;12.45;11.73;;;;;;;;;;4996300;28;20125;-58
2023/04/24 10:47:56;;;;;;;12.02;11.32;;;;;;;;;;4994471;28;20121;-58
2023/04/24 10:50:21;;;;;;;10.27;9.68;;;;;;;;;;4995246;28;20062;-58
2023/04/24 10:52:50;;;;;;;9.90;9.30;;;;;;;;;;4997703;28;20069;-58
2023/04/24 10:55:16;;;;;;;9.57;8.98;;;;;;;;;;4995342;28;20049;-58
2023/04/24 10:58:04;;;;;;;9.05;8.45;;;;;;;;;;4996937;28;20472;-58
2023/04/24 11:00:29;;;;;;;9.82;9.23;;;;;;;;;;4996698;28;20087;-57
2023/04/24 11:02:55;;;;;;;11.40;10.70;;;;;;;;;;4993409;28;20063;-57
2023/04/24 11:05:21;;;;;;;9.52;8.93;;;;;;;;;;4996586;28;20512;-58
2023/04/24 11:08:13;;;;;;;10.95;10.25;;;;;;;;;;4996964;28;20048;-58
2023/04/24 11:10:40;;;;;;;11.43;10.73;;;;;;;;;;4996950;28;20045;-58
2023/04/24 11:13:06;;;;;;;12.20;11.50;;;;;;;;;;4999851;28;20037;-58
2023/04/24 11:15:32;;;;;;;10.90;10.23;;;;;;;;;;4999497;28;20026;-58
2023/04/24 11:17:57;;;;;;;10.85;10.05;;;;;;;;;;4996925;28;20040;-57
2023/04/24 11:20:25;;;;;;;11.32;10.63;;;;;;;;;;4999480;28;20041;-58
2023/04/24 11:22:52;;;;;;;11.35;10.68;;;;;;;;;;4996016;28;20413;-57
2023/04/24 11:25:18;;;;;;;11.85;11.15;;;;;;;;;;4992909;28;20066;-58
2023/04/24 11:27:45;;;;;;;11.73;11.02;;;;;;;;;;4996605;28;20061;-57
2023/04/24 11:30:11;;;;;;;10.07;9.48;;;;;;;;;;4997767;28;20371;-57
2023/04/24 11:32:38;;;;;;;11.77;11.07;;;;;;;;;;5026137;28;20029;-57
2023/04/24 11:35:14;;;;;;;11.20;10.52;;;;;;;;;;4998114;28;20080;-57
2023/04/24 11:37:42;;;;;;;11.43;10.73;;;;;;;;;;4995430;28;20049;-58
2023/04/24 11:40:10;;;;;;;10.43;9.82;;;;;;;;;;4997049;28;20673;-58
2023/04/24 11:42:40;;;;;;;10.52;9.93;;;;;;;;;;4993044;28;20306;-57
2023/04/24 11:45:18;;;;;;;9.73;9.13;;;;;;;;;;4996056;28;20083;-58
2023/04/24 11:47:44;;;;;;;9.43;8.82;;;;;;;;;;4996932;28;20557;-58
2023/04/24 11:50:21;;;;;;;10.38;9.77;;;;;;;;;;4995312;28;20113;-58
2023/04/24 11:52:48;;;;;;;10.18;9.57;;;;;;;;;;4996786;28;20045;-58
2023/04/24 11:55:13;;;;;;;10.20;9.60;;;;;;;;;;4997399;28;20117;-58
2023/04/24 11:57:43;;;;;;;10.27;9.68;;;;;;;;;;4995504;28;20156;-59
2023/04/24 12:00:14;;;;;;;10.82;10.15;;;;;;;;;;4993049;28;20510;-59
2023/04/24 12:02:40;;;;;;;;;;;;;;;;;;4995812;28;20086;-59
2023/04/24 12:05:05;;;;;;;9.30;8.70;;;;;;;;;;4995558;28;20010;-59
2023/04/24 12:07:42;;;;;;;10.02;9.32;;;;;;;;;;4991447;28;20038;-59
2023/04/24 12:10:09;;;;;;;10.10;9.50;;;;;;;;;;4993496;28;20132;-59
2023/04/24 12:12:34;;;;;;;10.85;10.15;;;;;;;;;;4992057;28;20049;-58
2023/04/24 12:15:06;;;;;;;10.98;10.27;;;;;;;;;;4994312;28;20042;-58
2023/04/24 12:17:33;;;;;;;12.27;11.48;;;;;;;;;;4994225;28;20038;-58
2023/04/24 12:20:05;;;;;;;11.07;10.38;;;;;;;;;;4997927;28;20045;-58
2023/04/24 12:22:49;;;;;;;10.40;9.75;;;;;;;;;;4994765;28;20069;-58
2023/04/24 12:25:17;;;;;;;9.45;8.85;;;;;;;;;;4998530;28;20092;-58
2023/04/24 12:27:44;;;;;;;10.75;10.10;;;;;;;;;;4995131;28;20042;-59
2023/04/24 12:30:18;;;;;;;11.23;10.52;;;;;;;;;;4994939;28;20115;-58
2023/04/24 12:32:46;;;;;;;10.30;9.70;;;;;;;;;;4997602;28;20030;-58
2023/04/24 12:35:12;;;;;;;9.32;8.73;;;;;;;;;;4996185;28;20173;-58
2023/04/24 12:37:39;;;;;;;10.25;9.65;;;;;;;;;;4997415;28;20712;-58
2023/04/24 12:40:12;;;;;;;9.90;9.30;;;;;;;;;;4995921;28;20048;-58
2023/04/24 12:42:46;;;;;;;10.02;9.43;;;;;;;;;;4993407;28;20159;-58
2023/04/24 12:45:12;;;;;;;11.18;10.48;;;;;;;;;;4994917;28;20038;-58
2023/04/24 12:47:38;;;;;;;11.90;11.18;;;;;;;;;;4997524;28;20125;-58
2023/04/24 12:50:05;;;;;;;11.30;10.60;;;;;;;;;;4994502;28;20119;-58
2023/04/24 12:52:30;;;;;;;12.32;11.63;;;;;;;;;;4995959;28;20395;-59
2023/04/24 12:54:58;;;;;;;11.63;10.93;;;;;;;;;;4998121;28;20030;-58
2023/04/24 12:57:25;;;;;;;12.68;11.95;;;;;;;;;;4997702;28;20044;-58
2023/04/24 12:59:52;;;;;;;11.68;10.90;;;;;;;;;;4999826;28;20128;-59
2023/04/24 13:02:17;;;;;;;10.05;9.40;;;;;;;;;;4995305;28;20092;-59
2023/04/24 13:04:49;;;;;;;11.77;11.07;;;;;;;;;;4995735;28;20038;-58
2023/04/24 13:07:15;;;;;;;12.75;12.00;;;;;;;;;;4998352;28;20052;-59
2023/04/24 13:09:41;;;;;;;13.07;12.27;;;;;;;;;;4995944;28;20034;-58
2023/04/24 13:12:08;;;;;;;11.18;10.48;;;;;;;;;;4994774;28;20041;-59
2023/04/24 13:14:33;;;;;;;12.30;11.50;;;;;;;;;;4997207;28;20030;-59
2023/04/24 13:16:59;;;;;;;11.35;10.65;;;;;;;;;;4996403;28;20042;-58
2023/04/24 13:19:28;;;;;;;10.73;10.02;;;;;;;;;;4995810;28;20147;-59
2023/04/24 13:21:55;;;;;;;9.77;9.18;;;;;;;;;;4997517;28;20046;-59
2023/04/24 13:24:24;;;;;;;11.98;11.18;;;;;;;;;;4995876;28;20641;-59
2023/04/24 13:26:50;;;;;;;12.07;11.38;;;;;;;;;;4995949;28;20045;-60
2023/04/24 13:29:15;;;;;;;12.23;11.52;;;;;;;;;;4996825;28;20038;-59
2023/04/24 13:31:40;;;;;;;11.70;11.00;;;;;;;;;;4998887;28;20038;-59
2023/04/24 13:34:06;;;;;;;12.13;11.43;;;;;;;;;;4992261;28;20121;-59
2023/04/24 13:36:31;;;;;;;11.68;10.98;;;;;;;;;;4995895;28;20088;-59
2023/04/24 13:38:57;;;;;;;12.45;11.60;;;;;;;;;;5012508;28;20068;-59
2023/04/24 13:41:22;;;;;;;12.05;11.35;;;;;;;;;;4996261;28;20041;-59
2023/04/24 13:43:47;;;;;;;11.85;11.15;;;;;;;;;;4996888;28;20072;-59
2023/04/24 13:46:13;;;;;;;13.18;12.38;;;;;;;;;;4993775;28;20065;-59
2023/04/24 13:48:38;;;;;;;12.13;11.43;;;;;;;;;;4995493;28;20026;-58
2023/04/24 13:51:04;;;;;;;12.52;11.82;;;;;;;;;;4994209;28;20476;-60
2023/04/24 13:53:29;;;;;;;11.00;10.32;;;;;;;;;;4995522;28;20427;-58
2023/04/24 13:55:55;;;;;;;10.00;9.40;;;;;;;;;;4994218;28;20046;-58
2023/04/24 13:58:20;;;;;;;11.60;10.90;;;;;;;;;;4996490;28;20030;-58
2023/04/24 14:00:46;;;;;;;9.98;9.38;;;;;;;;;;4995846;28;20536;-59
2023/04/24 14:03:11;;;;;;;10.82;10.07;;;;;;;;;;4991337;28;20031;-59
2023/04/24 14:05:37;;;;;;;9.45;8.85;;;;;;;;;;4997937;28;20030;-61
2023/04/24 14:08:02;;;;;;;11.65;10.95;;;;;;;;;;4991087;28;20065;-59
2023/04/24 14:10:27;;;;;;;10.70;10.05;;;;;;;;;;4991160;28;20029;-59
2023/04/24 14:12:53;;;;;;;11.43;10.73;;;;;;;;;;4994147;28;20468;-59
2023/04/24 14:15:19;;;;;;;11.85;11.15;;;;;;;;;;4993413;28;20784;-59
2023/04/24 14:17:44;;;;;;;11.45;10.75;;;;;;;;;;4994070;28;20464;-59
2023/04/24 14:20:10;;;;;;;11.45;10.75;;;;;;;;;;4994348;28;20057;-59
2023/04/24 14:22:35;;;;;;;11.23;10.52;;;;;;;;;;4992719;28;20141;-59